Kathy C — 2CTI7 — position and weather

sailwx.info

Track history (hours):
 
Tides and Currents Weather Stations Pressure Air Temp Water Temp Dewpoint Dewpoint Depression Visibility Wind Speed Wind Dir Waves Ship Positions

Kathy C

Last reported at 2017-Jan-16 21:21 UTC. Time now 2017-Jan-17 11:03 UTC.
Position N 53°34' E 000°06'.

Length 106 m; draft 4.4 m.

Type: Cargo ship. MMSI: 235075591.

Date/timePositionNaut miles runAvg speedWind from/ knotsBaromVisibWave heightAir tempDewpointWater temp
2017-Jan-16 21:21N 53°34' E 000°06'911.2
2017-Jan-16 20:34N 53°37' W 000°08'9 8.5
2017-Jan-16 19:33N 53°44' W 000°16'1 0.5
2017-Jan-16 18:26N 53°44' W 000°16'0 0.0
2017-Jan-16 17:32N 53°44' W 000°16'0 0.0
2017-Jan-16 16:32N 53°44' W 000°16'0 0.0
2017-Jan-16 15:32N 53°44' W 000°16'0 0.0
2017-Jan-16 14:32N 53°44' W 000°16'0 0.0
2017-Jan-16 13:32N 53°44' W 000°16'0 0.0
2017-Jan-16 12:32N 53°44' W 000°16'0 0.0
2017-Jan-16 11:29N 53°44' W 000°16'0 0.0
2017-Jan-16 10:32N 53°44' W 000°16'0 0.0
2017-Jan-16 09:32N 53°44' W 000°16'0 0.0
2017-Jan-16 08:32N 53°44' W 000°16'0 0.0
2017-Jan-16 07:32N 53°44' W 000°16'0 0.0
2017-Jan-16 06:32N 53°44' W 000°16'0 0.5
2017-Jan-16 05:34N 53°44' W 000°16'5 5.3
2017-Jan-16 04:33N 53°40' W 000°12'9 9.2
2017-Jan-16 03:33N 53°35' E 000°01'52 2.2
2017-Jan-15 03:34N 53°11' E 001°18'9 8.8
2017-Jan-15 02:34N 53°03' E 001°26'10 9.9
2017-Jan-15 01:34N 52°56' E 001°37'9 8.5
2017-Jan-15 00:34N 52°50' E 001°46'7 6.6
2017-Jan-14 23:33N 52°46' E 001°56'78 6.5
2017-Jan-14 11:33N 52°31' E 004°01'7 6.9
2017-Jan-14 10:33N 52°31' E 004°13'7 7.1
2017-Jan-14 09:33N 52°29' E 004°24'7 7.3
2017-Jan-14 08:33N 52°28' E 004°36'5 4.5
2017-Jan-14 07:33N 52°26' E 004°43'3 3.3
2017-Jan-14 06:33N 52°24' E 004°47'0 0.0
2017-Jan-14 05:33N 52°24' E 004°47'0 0.0
2017-Jan-14 04:30N 52°24' E 004°47'0 0.0
2017-Jan-14 03:27N 52°24' E 004°47'0 0.0
2017-Jan-13 23:33N 52°24' E 004°47'0 0.0
2017-Jan-13 22:30N 52°24' E 004°47'0 0.0
2017-Jan-13 21:33N 52°24' E 004°47'0 0.0
2017-Jan-13 20:30N 52°24' E 004°47'0 0.0
2017-Jan-13 19:12N 52°24' E 004°47'0 0.0
2017-Jan-13 18:30N 52°24' E 004°47'0 0.0
2017-Jan-13 17:30N 52°24' E 004°47'0 0.0
2017-Jan-13 16:33N 52°24' E 004°47'0 0.0
2017-Jan-13 15:30N 52°24' E 004°47'0 0.0
2017-Jan-13 14:18N 52°24' E 004°47'0 0.0
2017-Jan-13 13:27N 52°24' E 004°47'0 0.0
2017-Jan-13 12:30N 52°24' E 004°47'0 0.0
2017-Jan-13 11:33N 52°24' E 004°47'0 0.0
2017-Jan-13 10:33N 52°24' E 004°47'0 0.0
2017-Jan-13 09:15N 52°24' E 004°47'0 0.0
2017-Jan-13 08:33N 52°24' E 004°47'0 0.0
2017-Jan-13 07:30N 52°24' E 004°47'0 0.0
2017-Jan-13 06:30N 52°24' E 004°47'0 0.0
2017-Jan-13 05:33N 52°24' E 004°47'0 0.0
2017-Jan-13 04:24N 52°24' E 004°47'0 0.0
2017-Jan-13 03:30N 52°24' E 004°47'0 0.0
2017-Jan-13 02:33N 52°24' E 004°47'0 0.0
2017-Jan-13 01:33N 52°24' E 004°47'0 0.0
2017-Jan-13 00:18N 52°24' E 004°47'0 0.0
2017-Jan-12 23:33N 52°24' E 004°47'0 0.0
2017-Jan-12 22:33N 52°24' E 004°47'0 0.0
2017-Jan-12 21:33N 52°24' E 004°47'0 0.0
2017-Jan-12 20:30N 52°24' E 004°47'0 0.0
2017-Jan-12 19:33N 52°24' E 004°47'0 0.0
2017-Jan-12 18:30N 52°24' E 004°47'0 0.0
2017-Jan-12 17:30N 52°24' E 004°47'0 0.0
2017-Jan-12 16:27N 52°24' E 004°47'0 0.0
2017-Jan-12 15:30N 52°24' E 004°47'0 0.0
2017-Jan-12 14:33N 52°24' E 004°47'0 0.1
2017-Jan-12 13:33N 52°24' E 004°47'0 0.0
2017-Jan-12 12:30N 52°24' E 004°47'0 0.0
2017-Jan-12 11:30N 52°24' E 004°47'0 0.0
2017-Jan-12 10:33N 52°24' E 004°47'0 0.0
2017-Jan-12 09:33N 52°24' E 004°47'0 0.0
2017-Jan-12 08:30N 52°24' E 004°47'0 0.0
2017-Jan-12 07:33N 52°24' E 004°47'0 0.0
2017-Jan-12 06:33N 52°24' E 004°47'0 0.0
2017-Jan-12 05:34N 52°24' E 004°47'0 0.0
2017-Jan-12 04:33N 52°24' E 004°47'0 0.2
2017-Jan-12 03:33N 52°24' E 004°47'6 5.6
2017-Jan-12 02:34N 52°28' E 004°40'2 2.3
2017-Jan-12 01:33N 52°28' E 004°36'8 8.2
2017-Jan-12 00:34N 52°28' E 004°22'1110.6
2017-Jan-11 23:33N 52°28' E 004°05'1010.3
2017-Jan-11 22:33N 52°26' E 003°48'7011.3
2017-Jan-11 16:21N 52°46' E 001°58'912.0
2017-Jan-11 15:33N 52°51' E 001°45'1111.3
2017-Jan-11 14:33N 52°59' E 001°31'1010.3
2017-Jan-11 13:33N 53°07' E 001°22'1010.0
2017-Jan-11 12:33N 53°16' E 001°13'6010.0
2017-Jan-11 06:33N 54°05' E 000°13'1111.2
2017-Jan-11 05:34N 54°13' W 000°00'1212.1
2017-Jan-11 04:33N 54°22' W 000°14'1212.3
2017-Jan-11 03:34N 54°31' W 000°28'3511.6
2017-Jan-11 00:33N 54°53' W 001°14'4 0.8
2017-Jan-10 19:32N 54°54' W 001°21'2 0.1
2017-Jan-09 11:32N 54°55' W 001°18'1 0.5
2017-Jan-09 10:33N 54°55' W 001°18'36 8.2
2017-Jan-09 06:08N 54°32' W 000°29'610.3
2017-Jan-09 05:34N 54°28' W 000°23'1010.3
2017-Jan-09 04:34N 54°20' W 000°11'1010.3
2017-Jan-09 03:33N 54°13' E 000°01'10 9.9
2017-Jan-09 02:34N 54°05' E 000°12'63 9.8
2017-Jan-08 20:08N 53°14' E 001°14'610.6
2017-Jan-08 19:34N 53°09' E 001°20'10 9.9
2017-Jan-08 18:34N 53°01' E 001°29'9 8.8
2017-Jan-08 17:34N 52°54' E 001°38'8 8.0
2017-Jan-08 16:34N 52°49' E 001°48'7 7.3
2017-Jan-08 15:33N 52°43' E 001°56'28 8.9
2017-Jan-08 12:24N 52°15' E 001°52'910.6
2017-Jan-08 11:34N 52°06' E 001°51'1111.3
2017-Jan-08 10:34N 51°55' E 001°48'1110.9
2017-Jan-08 09:34N 51°44' E 001°49'1110.5
2017-Jan-08 08:33N 51°33' E 001°47'1010.5
2017-Jan-08 07:34N 51°23' E 001°43'1010.2
2017-Jan-08 06:34N 51°13' E 001°39'9 8.9
2017-Jan-08 05:34N 51°04' E 001°38'9 9.2
2017-Jan-08 04:34N 50°58' E 001°28'8 7.8
2017-Jan-08 03:31N 50°50' E 001°23'55 7.9
2017-Jan-07 20:34N 50°23' E 000°09'9 8.8
2017-Jan-07 19:34N 50°20' W 000°05'9 9.0
2017-Jan-07 18:33N 50°18' W 000°18'4310.8
2017-Jan-07 14:33N 50°06' W 001°23'1211.8
2017-Jan-07 13:34N 50°02' W 001°41'1111.1
2017-Jan-07 12:33N 49°59' W 001°58'  
Track history (hours):
 
Tides and Currents Weather Stations Pressure Air Temp Water Temp Dewpoint Dewpoint Depression Visibility Wind Speed Wind Dir Waves Ship Positions

Kathy C

Last reported at 2017-Jan-16 21:21 UTC. Time now 2017-Jan-17 11:03 UTC.
Position N 53°34' E 000°06'.

Length 106 m; draft 4.4 m.

Type: Cargo ship. MMSI: 235075591.

Date/timePositionNaut miles runAvg speedWind from/ knotsBaromVisibWave heightAir tempDewpointWater temp
2017-Jan-16 21:21N 53°34' E 000°06'911.2
2017-Jan-16 20:34N 53°37' W 000°08'9 8.5
2017-Jan-16 19:33N 53°44' W 000°16'1 0.5
2017-Jan-16 18:26N 53°44' W 000°16'0 0.0
2017-Jan-16 17:32N 53°44' W 000°16'0 0.0
2017-Jan-16 16:32N 53°44' W 000°16'0 0.0
2017-Jan-16 15:32N 53°44' W 000°16'0 0.0
2017-Jan-16 14:32N 53°44' W 000°16'0 0.0
2017-Jan-16 13:32N 53°44' W 000°16'0 0.0
2017-Jan-16 12:32N 53°44' W 000°16'0 0.0
2017-Jan-16 11:29N 53°44' W 000°16'0 0.0
2017-Jan-16 10:32N 53°44' W 000°16'0 0.0
2017-Jan-16 09:32N 53°44' W 000°16'0 0.0
2017-Jan-16 08:32N 53°44' W 000°16'0 0.0
2017-Jan-16 07:32N 53°44' W 000°16'0 0.0
2017-Jan-16 06:32N 53°44' W 000°16'0 0.5
2017-Jan-16 05:34N 53°44' W 000°16'5 5.3
2017-Jan-16 04:33N 53°40' W 000°12'9 9.2
2017-Jan-16 03:33N 53°35' E 000°01'52 2.2
2017-Jan-15 03:34N 53°11' E 001°18'9 8.8
2017-Jan-15 02:34N 53°03' E 001°26'10 9.9
2017-Jan-15 01:34N 52°56' E 001°37'9 8.5
2017-Jan-15 00:34N 52°50' E 001°46'7 6.6
2017-Jan-14 23:33N 52°46' E 001°56'78 6.5
2017-Jan-14 11:33N 52°31' E 004°01'7 6.9
2017-Jan-14 10:33N 52°31' E 004°13'7 7.1
2017-Jan-14 09:33N 52°29' E 004°24'7 7.3
2017-Jan-14 08:33N 52°28' E 004°36'5 4.5
2017-Jan-14 07:33N 52°26' E 004°43'3 3.3
2017-Jan-14 06:33N 52°24' E 004°47'0 0.0
2017-Jan-14 05:33N 52°24' E 004°47'0 0.0
2017-Jan-14 04:30N 52°24' E 004°47'0 0.0
2017-Jan-14 03:27N 52°24' E 004°47'0 0.0
2017-Jan-13 23:33N 52°24' E 004°47'0 0.0
2017-Jan-13 22:30N 52°24' E 004°47'0 0.0
2017-Jan-13 21:33N 52°24' E 004°47'0 0.0
2017-Jan-13 20:30N 52°24' E 004°47'0 0.0
2017-Jan-13 19:12N 52°24' E 004°47'0 0.0
2017-Jan-13 18:30N 52°24' E 004°47'0 0.0
2017-Jan-13 17:30N 52°24' E 004°47'0 0.0
2017-Jan-13 16:33N 52°24' E 004°47'0 0.0
2017-Jan-13 15:30N 52°24' E 004°47'0 0.0
2017-Jan-13 14:18N 52°24' E 004°47'0 0.0
2017-Jan-13 13:27N 52°24' E 004°47'0 0.0
2017-Jan-13 12:30N 52°24' E 004°47'0 0.0
2017-Jan-13 11:33N 52°24' E 004°47'0 0.0
2017-Jan-13 10:33N 52°24' E 004°47'0 0.0
2017-Jan-13 09:15N 52°24' E 004°47'0 0.0
2017-Jan-13 08:33N 52°24' E 004°47'0 0.0
2017-Jan-13 07:30N 52°24' E 004°47'0 0.0
2017-Jan-13 06:30N 52°24' E 004°47'0 0.0
2017-Jan-13 05:33N 52°24' E 004°47'0 0.0
2017-Jan-13 04:24N 52°24' E 004°47'0 0.0
2017-Jan-13 03:30N 52°24' E 004°47'0 0.0
2017-Jan-13 02:33N 52°24' E 004°47'0 0.0
2017-Jan-13 01:33N 52°24' E 004°47'0 0.0
2017-Jan-13 00:18N 52°24' E 004°47'0 0.0
2017-Jan-12 23:33N 52°24' E 004°47'0 0.0
2017-Jan-12 22:33N 52°24' E 004°47'0 0.0
2017-Jan-12 21:33N 52°24' E 004°47'0 0.0
2017-Jan-12 20:30N 52°24' E 004°47'0 0.0
2017-Jan-12 19:33N 52°24' E 004°47'0 0.0
2017-Jan-12 18:30N 52°24' E 004°47'0 0.0
2017-Jan-12 17:30N 52°24' E 004°47'0 0.0
2017-Jan-12 16:27N 52°24' E 004°47'0 0.0
2017-Jan-12 15:30N 52°24' E 004°47'0 0.0
2017-Jan-12 14:33N 52°24' E 004°47'0 0.1
2017-Jan-12 13:33N 52°24' E 004°47'0 0.0
2017-Jan-12 12:30N 52°24' E 004°47'0 0.0
2017-Jan-12 11:30N 52°24' E 004°47'0 0.0
2017-Jan-12 10:33N 52°24' E 004°47'0 0.0
2017-Jan-12 09:33N 52°24' E 004°47'0 0.0
2017-Jan-12 08:30N 52°24' E 004°47'0 0.0
2017-Jan-12 07:33N 52°24' E 004°47'0 0.0
2017-Jan-12 06:33N 52°24' E 004°47'0 0.0
2017-Jan-12 05:34N 52°24' E 004°47'0 0.0
2017-Jan-12 04:33N 52°24' E 004°47'0 0.2
2017-Jan-12 03:33N 52°24' E 004°47'6 5.6
2017-Jan-12 02:34N 52°28' E 004°40'2 2.3
2017-Jan-12 01:33N 52°28' E 004°36'8 8.2
2017-Jan-12 00:34N 52°28' E 004°22'1110.6
2017-Jan-11 23:33N 52°28' E 004°05'1010.3
2017-Jan-11 22:33N 52°26' E 003°48'7011.3
2017-Jan-11 16:21N 52°46' E 001°58'912.0
2017-Jan-11 15:33N 52°51' E 001°45'1111.3
2017-Jan-11 14:33N 52°59' E 001°31'1010.3
2017-Jan-11 13:33N 53°07' E 001°22'1010.0
2017-Jan-11 12:33N 53°16' E 001°13'6010.0
2017-Jan-11 06:33N 54°05' E 000°13'1111.2
2017-Jan-11 05:34N 54°13' W 000°00'1212.1
2017-Jan-11 04:33N 54°22' W 000°14'1212.3
2017-Jan-11 03:34N 54°31' W 000°28'3511.6
2017-Jan-11 00:33N 54°53' W 001°14'4 0.8
2017-Jan-10 19:32N 54°54' W 001°21'2 0.1
2017-Jan-09 11:32N 54°55' W 001°18'1 0.5
2017-Jan-09 10:33N 54°55' W 001°18'36 8.2
2017-Jan-09 06:08N 54°32' W 000°29'610.3
2017-Jan-09 05:34N 54°28' W 000°23'1010.3
2017-Jan-09 04:34N 54°20' W 000°11'1010.3
2017-Jan-09 03:33N 54°13' E 000°01'10 9.9
2017-Jan-09 02:34N 54°05' E 000°12'63 9.8
2017-Jan-08 20:08N 53°14' E 001°14'610.6
2017-Jan-08 19:34N 53°09' E 001°20'10 9.9
2017-Jan-08 18:34N 53°01' E 001°29'9 8.8
2017-Jan-08 17:34N 52°54' E 001°38'8 8.0
2017-Jan-08 16:34N 52°49' E 001°48'7 7.3
2017-Jan-08 15:33N 52°43' E 001°56'28 8.9
2017-Jan-08 12:24N 52°15' E 001°52'910.6
2017-Jan-08 11:34N 52°06' E 001°51'1111.3
2017-Jan-08 10:34N 51°55' E 001°48'1110.9
2017-Jan-08 09:34N 51°44' E 001°49'1110.5
2017-Jan-08 08:33N 51°33' E 001°47'1010.5
2017-Jan-08 07:34N 51°23' E 001°43'1010.2
2017-Jan-08 06:34N 51°13' E 001°39'9 8.9
2017-Jan-08 05:34N 51°04' E 001°38'9 9.2
2017-Jan-08 04:34N 50°58' E 001°28'8 7.8
2017-Jan-08 03:31N 50°50' E 001°23'55 7.9
2017-Jan-07 20:34N 50°23' E 000°09'9 8.8
2017-Jan-07 19:34N 50°20' W 000°05'9 9.0
2017-Jan-07 18:33N 50°18' W 000°18'4310.8
2017-Jan-07 14:33N 50°06' W 001°23'1211.8
2017-Jan-07 13:34N 50°02' W 001°41'1111.1
2017-Jan-07 12:33N 49°59' W 001°58'  

Dump ship's entire track history